LFVPCYDF

Guest
Details From LFVP - St Pierre
To CYDF - DEER LAKE
Flight Number -
Tags generated
Created
Modified
Stats Distance 155 nm / 287 km
Max Altitude 0 ft / 0 m
Waypoints 2
Social Downloads 0
Likes 0
Share VATSIM

Download

Looking for another format? Having issues loading an existing format? Contact us
Advertisement - Login to hide

Notes

Basic altitude profile: - Ascent Rate: 2500ft/min - Ascent Speed: 250kts - Cruise Altitude: 35000ft - Cruise Speed: 420kts - Descent Rate: 1500ft/min - Descent Speed: 250kts Options: - Use NATs: yes - Use PACOTS: yes - Use low airways: yes - Use high airways: yes

Route

LFVP CYDF

ID Type Via Altitude Latitude Longitude Leg Dist Tot Dist Heading (true) Name
O LFVP APT - 0 ft / 0 m 46.76266˚ -56.17553˚ - 0 nm - St Pierre
O CYDF APT - 0 ft / 0 m 49.21100˚ -57.39125˚ 154 nm 154 nm 342° / 341° DEER LAKE

Altitude Profile

Advertisement - Login to hide

LFVP

Details ICAO LFVP (FSP)
Name St Pierre
Region France
Timezone Unknown (UTC+0.0)
Stats Elevation 27 ft / 8 m (AMSL)
Location 46.762662° -56.175529°
Runways 1
Magnetic Variation 18.223° W

METAR

LFVP 162100Z 33019G31KT 2200 -SN BLSN OVC006 M03/M03 Q0990

Decode

TAF

TAF LFVP 161700Z 1618/1703 02025G40KT 0400 SN BLSN OVC003 BECMG 1618/1620 34030G40KT BECMG 1621/1623 3000 SHSN BKN010

Decode

Departure Runways

ID Width Length Bearing (true) Bearing (mag) Surface Threshold Offset Overrun Length
08 150 ft / 46 m 5,902 ft / 1,799 m 58.48° 76.70° Asphalt 0 ft / 0 m 0 ft / 0 m
26 150 ft / 46 m 5,902 ft / 1,799 m 238.50° 256.72° Asphalt 0 ft / 0 m 0 ft / 0 m

CYDF

Details ICAO CYDF (YDF)
Name DEER LAKE
Region Canada
Timezone America/St_Johns (UTC-3.5)
Stats Elevation 72 ft / 22 m (AMSL)
Location 49.211000° -57.391246°
Runways 1
Magnetic Variation 19.133° W

METAR

CYDF 162100Z 20002KT 15SM -SN OVC045 M05/M07 A2934 RMK SC8 SLP938

Decode

TAF

TAF CYDF 161940Z 1620/1708 VRB03KT P6SM -SHSN OVC025 TEMPO 1620/1704 2SM -SHSN OVC020 PROB30 1620/1704 1SM -SHSN FM170400 25015G25KT 4SM -SHSN OVC020 RMK NXT FCST BY 170200Z

Decode

Destination Runways

ID Width Length Bearing (true) Bearing (mag) Surface Threshold Offset Overrun Length
07 151 ft / 46 m 5,989 ft / 1,825 m 46.32° 65.45° Asphalt 0 ft / 0 m 0 ft / 0 m
25 151 ft / 46 m 5,989 ft / 1,825 m 226.34° 245.47° Asphalt 0 ft / 0 m 0 ft / 0 m

Approach Navaids

Runway Type Ident Frequency Range Bearing (true) Bearing (mag) Slope Elevation
25 Localiser IDF 110.30 MHz 18 nm / 33 km 226.30° 245.43° - 72 ft / 22 m (AMSL)
25 Glidescope IDF 110.30 MHz 10 nm / 19 km 249.00° 268.13° 2.70° 72 ft / 22 m (AMSL)